Hlavní strana
METAR-TAF:

METAR-TAF

Letiště :

Letiště Odense

Odense, Dánsko

zeměpisná šířka: 55-29N, zeměpisná délka: 010-20E, výška: 17 m

Aktuální stav počasí

Zpráva byla vytvořena před 11 hodinami a 34 minutami, v 14:50 UTC
Východoseverovýchodní vítr 3 kt
Teplota 16°C
Vlhkost vzduchu 29%
Tlak 1032 hPa
Viditelnost 10 km a více
Žádná oblačnost pod 1500 m, nevyskytují se cumulonimby.

METAR: EKOD 201450Z 06003KT CAVOK 16/M02 Q1032

Čas: 04:24 (02:24 UTC)

Předpověď počasí

Zpráva byla vytvořena před 17 hodinami a 28 minutami, v 08:56 UTC
Předpověď platná od 20 v 09 UTC do 20 v 15 UTC
Severní vítr 5 kt
Viditelnost 10 km a více
Žádná oblačnost pod 1500 m, nevyskytují se cumulonimby.

TAF: EKOD 200856Z 2009/2015 01005KT CAVOK

Stav a předpovědi počasí z více než 4 000 letišť (zprávy METAR a TAF).

Červené a žluté tečky na mapě představují dostupné meteorologické stanice.

Když kurzor umístíte na tečku, zobrazí se název stanice.

Pak kliknutím zobrazíte stav a předpověď počasí.

Chcete-li změnit mapu, kliknutím na zelené tlačítko se znaménkem +mapu přiblížíte, kliknutím na zelené tlačítko se znaménkem – mapu oddálíte a kliknutím na zelené šipky přejdete na sousední mapy.


METAR-TAF: